createdAt,value
2019-04-23T00:00:19.847Z,56.60
2019-04-23T00:02:50.930Z,56.80
2019-04-23T00:05:29.077Z,56.60
2019-04-23T00:10:26.063Z,56.90
2019-04-23T00:12:54.231Z,56.80
2019-04-23T00:17:48.826Z,57.00
2019-04-23T00:20:22.016Z,57.40
2019-04-23T00:25:43.881Z,57.20
2019-04-23T00:28:10.120Z,57.10
2019-04-23T00:33:05.323Z,56.80
2019-04-23T00:35:32.663Z,56.60
2019-04-23T00:38:06.066Z,56.60
2019-04-23T00:43:08.944Z,56.30
2019-04-23T00:45:42.996Z,56.30
2019-04-23T00:48:09.984Z,56.00
2019-04-23T00:50:46.514Z,56.20
2019-04-23T00:53:04.536Z,56.00
2019-04-23T00:55:42.631Z,55.90
2019-04-23T00:58:12.828Z,55.60
2019-04-23T01:00:41.542Z,55.40
2019-04-23T01:08:12.837Z,55.10
2019-04-23T01:10:52.058Z,55.20
2019-04-23T01:13:22.393Z,55.10
2019-04-23T01:15:53.737Z,54.80
2019-04-23T01:18:33.545Z,54.90
2019-04-23T01:20:53.056Z,54.50
2019-04-23T01:23:16.014Z,54.60
2019-04-23T01:25:57.762Z,54.50
2019-04-23T01:28:53.834Z,54.50
2019-04-23T01:31:16.930Z,54.00
2019-04-23T01:36:23.370Z,53.90
2019-04-23T01:38:46.179Z,53.60
2019-04-23T01:41:12.897Z,53.80
2019-04-23T01:46:17.966Z,53.60
2019-04-23T01:48:47.128Z,53.70
2019-04-23T01:51:07.827Z,53.20
2019-04-23T01:53:45.668Z,53.10
2019-04-23T01:56:22.976Z,53.20
2019-04-23T01:58:45.502Z,53.20
2019-04-23T02:01:19.051Z,53.30
2019-04-23T02:03:46.663Z,53.50
2019-04-23T02:06:34.947Z,53.30
2019-04-23T02:08:48.693Z,53.10
2019-04-23T02:11:13.120Z,52.90
2019-04-23T02:13:53.232Z,53.10
2019-04-23T02:16:23.051Z,53.00
2019-04-23T02:18:50.243Z,53.40
2019-04-23T02:26:27.722Z,53.30
2019-04-23T02:29:03.752Z,53.60
2019-04-23T02:31:45.078Z,53.30
2019-04-23T02:34:14.365Z,53.20
2019-04-23T02:36:32.298Z,53.20
2019-04-23T02:38:55.439Z,53.20
2019-04-23T02:44:09.106Z,53.10
2019-04-23T02:46:24.507Z,53.00
2019-04-23T02:49:05.013Z,52.90
2019-04-23T02:54:19.734Z,53.00
2019-04-23T03:01:39.999Z,52.90
2019-04-23T03:04:09.963Z,53.20
2019-04-23T03:09:00.468Z,53.00
2019-04-23T03:14:07.638Z,53.40
2019-04-23T03:19:25.596Z,52.90
2019-04-23T03:24:36.429Z,53.10
2019-04-23T03:27:19.229Z,53.10
2019-04-23T03:29:46.962Z,53.00
2019-04-23T03:37:20.588Z,53.00
2019-04-23T03:39:55.059Z,53.30
2019-04-23T03:42:11.963Z,52.90
2019-04-23T03:44:45.015Z,52.90
2019-04-23T03:49:41.151Z,53.30
2019-04-23T03:52:15.988Z,52.70
2019-04-23T03:54:39.906Z,52.70
2019-04-23T03:57:13.481Z,52.70
2019-04-23T03:59:44.795Z,52.70
2019-04-23T04:02:20.425Z,52.80
2019-04-23T04:04:32.809Z,52.80
2019-04-23T04:09:44.869Z,52.90
2019-04-23T04:12:16.497Z,52.80
2019-04-23T04:22:23.832Z,52.00
2019-04-23T04:24:40.192Z,52.20
2019-04-23T04:29:47.493Z,52.00
2019-04-23T04:32:03.666Z,51.90
2019-04-23T04:42:12.390Z,51.40
2019-04-23T04:44:50.279Z,50.80
2019-04-23T04:49:53.325Z,50.50
2019-04-23T04:54:30.781Z,49.80
2019-04-23T04:57:20.802Z,50.10
2019-04-23T04:59:53.910Z,49.60
2019-04-23T05:05:16.873Z,49.80
2019-04-23T05:09:57.009Z,49.00
2019-04-23T05:12:19.094Z,48.70
2019-04-23T05:14:52.963Z,48.90
2019-04-23T05:17:16.828Z,48.50
2019-04-23T05:19:51.221Z,48.20
2019-04-23T05:22:16.473Z,48.50
2019-04-23T05:24:42.979Z,48.00
2019-04-23T05:27:15.773Z,47.80
2019-04-23T05:29:46.528Z,47.50
2019-04-23T05:32:16.738Z,47.60
2019-04-23T05:34:45.106Z,47.20
2019-04-23T05:37:15.995Z,47.40
2019-04-23T05:42:19.893Z,47.40
2019-04-23T05:44:50.291Z,47.30
2019-04-23T05:47:25.450Z,47.10
2019-04-23T05:52:17.791Z,46.50
2019-04-23T05:55:07.596Z,46.60
2019-04-23T05:57:14.240Z,46.20
2019-04-23T05:59:48.543Z,46.20
2019-04-23T06:02:22.309Z,46.10
2019-04-23T06:04:49.604Z,46.00
2019-04-23T06:07:28.941Z,45.80
2019-04-23T06:09:52.131Z,45.80
2019-04-23T06:12:21.943Z,46.10
2019-04-23T06:14:53.794Z,45.70
2019-04-23T06:17:27.498Z,45.50
2019-04-23T06:19:57.103Z,45.60
2019-04-23T06:22:28.931Z,45.60
2019-04-23T06:24:49.865Z,46.00
2019-04-23T06:32:28.641Z,45.10
2019-04-23T06:34:52.938Z,45.20
2019-04-23T06:37:27.063Z,44.80
2019-04-23T06:39:55.398Z,43.90
2019-04-23T06:42:23.394Z,43.00
2019-04-23T06:44:56.176Z,43.30
2019-04-23T06:47:29.273Z,41.40
2019-04-23T06:49:55.949Z,41.90
2019-04-23T06:52:21.768Z,42.00
2019-04-23T06:57:25.551Z,41.20
2019-04-23T06:59:57.880Z,41.10
2019-04-23T07:02:26.157Z,41.80
2019-04-23T07:10:07.415Z,41.70
2019-04-23T07:12:33.288Z,42.20
2019-04-23T07:17:26.622Z,41.60
2019-04-23T07:20:04.239Z,42.60
2019-04-23T07:22:43.219Z,41.40
2019-04-23T07:25:03.172Z,41.40
2019-04-23T07:27:30.571Z,41.40
2019-04-23T07:30:03.602Z,41.50
2019-04-23T07:32:31.245Z,42.20
2019-04-23T07:37:32.741Z,41.50
2019-04-23T07:47:42.242Z,40.40
2019-04-23T07:50:23.170Z,40.60
2019-04-23T07:52:51.449Z,40.00
2019-04-23T07:57:52.169Z,40.40
2019-04-23T08:00:25.422Z,40.00
2019-04-23T08:02:47.700Z,40.00
2019-04-23T08:07:50.550Z,40.60
2019-04-23T08:10:18.598Z,39.80
2019-04-23T08:12:47.062Z,40.40
2019-04-23T08:15:23.107Z,40.90
2019-04-23T08:17:43.117Z,40.60
2019-04-23T08:20:26.768Z,40.40
2019-04-23T08:22:47.778Z,40.20
2019-04-23T08:25:26.425Z,39.50
2019-04-23T08:28:01.692Z,39.30
2019-04-23T08:30:24.114Z,39.00
2019-04-23T08:32:58.857Z,39.50
2019-04-23T08:35:26.985Z,39.50
2019-04-23T08:38:11.622Z,39.00
2019-04-23T08:40:30.707Z,38.60
2019-04-23T08:43:03.532Z,38.40
2019-04-23T08:45:31.377Z,39.30
2019-04-23T08:48:15.580Z,37.70
2019-04-23T08:50:40.343Z,37.50
2019-04-23T08:53:23.408Z,37.40
2019-04-23T08:55:53.590Z,36.80
2019-04-23T08:58:21.464Z,37.10
2019-04-23T09:00:51.994Z,36.60
2019-04-23T09:05:55.873Z,37.10
2019-04-23T09:08:19.133Z,37.30
2019-04-23T09:15:58.255Z,36.70
2019-04-23T09:18:20.948Z,37.00
2019-04-23T09:20:53.004Z,35.80
2019-04-23T09:23:33.044Z,35.80
2019-04-23T09:25:55.929Z,35.40
2019-04-23T09:30:55.351Z,35.00
2019-04-23T09:33:39.822Z,35.00
2019-04-23T09:36:07.758Z,34.10
2019-04-23T09:38:39.658Z,34.90
2019-04-23T09:44:14.589Z,34.70
2019-04-23T09:46:40.510Z,33.70
2019-04-23T09:49:14.918Z,33.40
2019-04-23T09:54:27.265Z,33.10
2019-04-23T09:56:41.594Z,32.70
2019-04-23T09:59:15.970Z,33.30
2019-04-23T10:01:40.943Z,33.10
2019-04-23T10:03:57.599Z,32.50
2019-04-23T10:06:22.626Z,33.00
2019-04-23T10:08:51.943Z,32.40
2019-04-23T10:11:19.657Z,32.30
2019-04-23T10:13:48.175Z,32.50
2019-04-23T10:16:19.391Z,32.50
2019-04-23T10:18:48.891Z,31.50
2019-04-23T10:21:17.690Z,31.90
2019-04-23T10:23:47.499Z,31.70
2019-04-23T10:26:16.526Z,32.10
2019-04-23T10:28:49.814Z,31.80
2019-04-23T10:31:18.753Z,31.90
2019-04-23T10:33:48.246Z,32.10
2019-04-23T10:36:19.899Z,31.80
2019-04-23T10:38:54.793Z,31.50
2019-04-23T10:41:18.220Z,31.00
2019-04-23T10:43:52.003Z,31.70
2019-04-23T10:46:53.074Z,31.00
2019-04-23T10:52:12.895Z,31.00
2019-04-23T10:57:04.044Z,31.20
2019-04-23T11:02:29.295Z,32.90
2019-04-23T11:07:20.863Z,32.70
2019-04-23T11:12:24.199Z,34.50
2019-04-23T11:14:53.407Z,33.90
2019-04-23T11:17:26.959Z,34.20
2019-04-23T11:20:06.819Z,32.40
2019-04-23T11:22:39.287Z,33.30
2019-04-23T11:24:53.402Z,33.70
2019-04-23T11:27:22.267Z,34.50
2019-04-23T11:29:57.023Z,34.40
2019-04-23T11:35:04.963Z,35.10
2019-04-23T11:37:25.426Z,35.50
2019-04-23T11:38:01.636Z,34.50
2019-04-23T11:39:55.379Z,35.70
2019-04-23T11:42:19.475Z,35.90
2019-04-23T11:47:47.028Z,36.30
2019-04-23T11:49:58.235Z,36.10
2019-04-23T11:52:42.798Z,35.60
2019-04-23T11:54:53.057Z,36.10
2019-04-23T11:57:40.737Z,35.90
2019-04-23T11:59:53.093Z,36.50
2019-04-23T12:02:32.784Z,36.80
2019-04-23T12:05:30.056Z,36.80
2019-04-23T12:07:57.648Z,37.50
2019-04-23T12:10:52.026Z,37.60
2019-04-23T12:13:21.303Z,37.20
2019-04-23T12:15:51.802Z,37.60
2019-04-23T12:18:18.112Z,38.00
2019-04-23T12:20:39.816Z,37.90
2019-04-23T12:23:42.774Z,37.90
2019-04-23T12:25:58.650Z,38.30
2019-04-23T12:28:23.103Z,39.30
2019-04-23T12:33:28.065Z,38.80
2019-04-23T12:35:44.139Z,39.10
2019-04-23T12:38:19.235Z,39.20
2019-04-23T12:40:49.244Z,39.30
2019-04-23T12:43:19.167Z,39.20
2019-04-23T12:45:46.928Z,39.10
2019-04-23T12:48:45.046Z,39.10
2019-04-23T12:53:38.002Z,39.10
2019-04-23T12:55:56.489Z,39.70
2019-04-23T13:00:48.409Z,39.90
2019-04-23T13:03:25.932Z,40.80
2019-04-23T13:05:43.421Z,40.00
2019-04-23T13:08:33.704Z,39.90
2019-04-23T13:10:49.989Z,40.40
2019-04-23T13:13:27.912Z,40.70
2019-04-23T13:15:53.084Z,40.80
2019-04-23T13:21:01.595Z,41.10
2019-04-23T13:25:57.467Z,41.30
2019-04-23T13:31:08.601Z,41.70
2019-04-23T13:33:38.918Z,41.50
2019-04-23T13:38:37.951Z,42.00
2019-04-23T13:41:12.376Z,41.70
2019-04-23T13:48:24.767Z,42.20
2019-04-23T13:51:09.531Z,42.70
2019-04-23T13:53:40.760Z,42.90
2019-04-23T13:56:15.283Z,43.10
2019-04-23T13:58:50.328Z,43.50
2019-04-23T14:03:41.257Z,43.30
2019-04-23T14:06:16.504Z,43.50
2019-04-23T14:08:47.470Z,43.60
2019-04-23T14:11:19.791Z,44.20
2019-04-23T14:13:52.189Z,44.10
2019-04-23T14:16:21.237Z,44.50
2019-04-23T14:24:03.359Z,45.10
2019-04-23T14:26:25.940Z,45.50
2019-04-23T14:28:43.491Z,45.90
2019-04-23T14:31:13.135Z,46.30
2019-04-23T14:33:56.405Z,46.20
2019-04-23T14:36:17.330Z,46.50
2019-04-23T14:38:43.691Z,46.80
2019-04-23T14:43:49.395Z,47.70
2019-04-23T14:46:38.488Z,48.00
2019-04-23T14:48:53.855Z,48.30
2019-04-23T14:58:57.464Z,49.50
2019-04-23T15:01:36.164Z,49.80
2019-04-23T15:11:29.582Z,51.00
2019-04-23T15:13:49.961Z,51.20
2019-04-23T15:16:22.251Z,51.70
2019-04-23T15:21:49.497Z,52.50
2019-04-23T15:28:37.426Z,53.10
2019-04-23T15:31:33.015Z,53.20
2019-04-23T15:34:13.812Z,53.60
2019-04-23T15:41:31.972Z,54.30
2019-04-23T15:44:03.111Z,54.40
2019-04-23T15:46:37.096Z,54.40
2019-04-23T15:49:07.271Z,54.50
2019-04-23T15:51:35.750Z,54.60
2019-04-23T15:54:02.818Z,54.70
2019-04-23T15:59:14.317Z,54.50
2019-04-23T16:01:34.493Z,54.50
2019-04-23T16:03:36.008Z,54.30
2019-04-23T16:06:07.830Z,54.40
2019-04-23T16:14:17.646Z,54.60
2019-04-23T16:16:37.318Z,55.00
2019-04-23T16:19:13.757Z,54.30
2019-04-23T16:21:47.920Z,54.30
2019-04-23T16:24:13.530Z,54.80
2019-04-23T16:29:25.870Z,54.40
2019-04-23T16:31:54.742Z,54.60
2019-04-23T16:36:59.495Z,54.20
2019-04-23T16:39:25.687Z,54.10
2019-04-23T16:42:01.823Z,54.10
2019-04-23T16:44:38.280Z,53.90
2019-04-23T16:47:04.574Z,53.90
2019-04-23T16:52:04.016Z,54.10
2019-04-23T16:54:31.257Z,54.10
2019-04-23T17:00:02.847Z,54.70
2019-04-23T17:02:13.519Z,54.70
2019-04-23T17:07:05.162Z,55.40
2019-04-23T17:12:08.983Z,55.90
2019-04-23T17:14:44.215Z,56.30
2019-04-23T17:17:04.828Z,56.80
2019-04-23T17:19:47.806Z,56.90
2019-04-23T17:22:11.320Z,57.40
2019-04-23T17:24:40.754Z,58.00
2019-04-23T17:27:34.918Z,58.20
2019-04-23T17:32:15.195Z,58.40
2019-04-23T17:34:54.769Z,58.70
2019-04-23T17:37:29.935Z,59.10
2019-04-23T17:40:03.607Z,59.30
2019-04-23T17:42:27.400Z,59.10
2019-04-23T17:45:26.139Z,59.40
2019-04-23T17:47:28.493Z,59.50
2019-04-23T17:52:38.684Z,59.60
2019-04-23T17:55:01.835Z,59.50
2019-04-23T17:57:30.644Z,59.70
2019-04-23T18:00:19.492Z,59.50
2019-04-23T18:05:08.204Z,59.70
2019-04-23T18:07:44.867Z,60.00
2019-04-23T18:10:17.944Z,59.80
2019-04-23T18:15:12.074Z,60.80
2019-04-23T18:17:52.767Z,60.40
2019-04-23T18:20:23.024Z,60.50
2019-04-23T18:22:53.513Z,60.40
2019-04-23T18:27:55.113Z,60.90
2019-04-23T18:30:28.809Z,60.40
2019-04-23T18:33:43.782Z,60.60
2019-04-23T18:35:33.009Z,60.90
2019-04-23T18:38:14.773Z,60.60
2019-04-23T18:40:54.567Z,60.30
2019-04-23T18:43:20.915Z,60.10
2019-04-23T18:45:47.737Z,59.30
2019-04-23T18:51:03.528Z,59.60
2019-04-23T18:56:06.666Z,59.40
2019-04-23T18:58:48.592Z,58.30
2019-04-23T19:01:11.314Z,57.20
2019-04-23T19:04:01.999Z,56.20
2019-04-23T19:06:34.638Z,55.20
2019-04-23T19:09:39.821Z,55.50
2019-04-23T19:12:25.555Z,55.20
2019-04-23T19:14:40.834Z,54.80
2019-04-23T19:19:57.757Z,52.70
2019-04-23T19:22:19.481Z,52.10
2019-04-23T19:25:01.617Z,51.70
2019-04-23T19:29:52.015Z,51.60
2019-04-23T19:32:20.875Z,51.40
2019-04-23T19:34:54.473Z,51.60
2019-04-23T19:37:35.221Z,51.90
2019-04-23T19:39:55.011Z,51.90
2019-04-23T19:42:29.018Z,51.80
2019-04-23T19:44:54.083Z,52.00
2019-04-23T19:47:37.300Z,52.00
2019-04-23T19:49:57.056Z,52.00
2019-04-23T19:52:52.611Z,52.00
2019-04-23T20:00:33.446Z,52.20
2019-04-23T20:03:01.586Z,52.00
2019-04-23T20:05:13.747Z,52.10
2019-04-23T20:07:56.651Z,52.20
2019-04-23T20:10:21.341Z,52.50
2019-04-23T20:12:46.454Z,52.60
2019-04-23T20:15:26.702Z,52.70
2019-04-23T20:17:54.646Z,53.10
2019-04-23T20:20:35.419Z,52.80
2019-04-23T20:22:55.326Z,52.50
2019-04-23T20:28:16.397Z,52.20
2019-04-23T20:31:39.363Z,52.50
2019-04-23T20:34:16.304Z,52.50
2019-04-23T20:36:22.004Z,52.60
2019-04-23T20:38:53.247Z,52.60
2019-04-23T20:41:27.915Z,52.60
2019-04-23T20:43:54.607Z,52.70
2019-04-23T20:46:14.806Z,52.90
2019-04-23T20:49:00.867Z,52.90
2019-04-23T20:51:14.400Z,52.90
2019-04-23T20:53:55.329Z,52.90
2019-04-23T20:56:27.144Z,52.80
2019-04-23T20:58:55.617Z,52.90
2019-04-23T21:03:55.182Z,53.10
2019-04-23T21:06:28.376Z,53.10
2019-04-23T21:09:24.413Z,53.30
2019-04-23T21:11:24.227Z,53.50
2019-04-23T21:14:10.936Z,53.40
2019-04-23T21:16:30.512Z,53.50
2019-04-23T21:19:15.170Z,53.70
2019-04-23T21:21:25.934Z,54.00
2019-04-23T21:23:56.520Z,54.50
2019-04-23T21:26:25.092Z,55.40
2019-04-23T21:29:07.042Z,55.80
2019-04-23T21:31:22.847Z,56.20
2019-04-23T21:34:06.188Z,56.70
2019-04-23T21:36:29.127Z,56.90
2019-04-23T21:41:50.960Z,57.60
2019-04-23T21:46:51.114Z,57.90
2019-04-23T21:54:06.071Z,58.00
2019-04-23T21:56:44.483Z,58.00
2019-04-23T21:59:07.240Z,58.10
2019-04-23T22:04:25.625Z,58.50
2019-04-23T22:06:59.217Z,58.60
2019-04-23T22:09:27.204Z,58.70
2019-04-23T22:14:16.973Z,59.10
2019-04-23T22:17:04.977Z,59.10
2019-04-23T22:24:33.012Z,59.90
2019-04-23T22:26:45.293Z,60.30
2019-04-23T22:29:27.822Z,60.60
2019-04-23T22:34:30.979Z,60.90
2019-04-23T22:37:04.577Z,60.90
2019-04-23T22:39:27.322Z,61.20
2019-04-23T22:41:55.927Z,61.40
2019-04-23T22:44:29.664Z,61.60
2019-04-23T22:52:19.270Z,62.60
2019-04-23T22:54:31.764Z,62.00
2019-04-23T22:57:01.226Z,62.10
2019-04-23T22:59:35.725Z,61.90
2019-04-23T23:02:28.117Z,62.10
2019-04-23T23:05:04.161Z,62.10
2019-04-23T23:07:28.835Z,62.20
2019-04-23T23:12:21.012Z,62.30
2019-04-23T23:14:54.735Z,62.70
2019-04-23T23:17:26.560Z,62.80
2019-04-23T23:20:01.749Z,63.00
2019-04-23T23:22:22.439Z,62.90
2019-04-23T23:24:56.425Z,63.20
2019-04-23T23:27:23.959Z,63.20
2019-04-23T23:32:23.180Z,63.70
2019-04-23T23:35:11.267Z,63.90
2019-04-23T23:37:19.069Z,64.10
2019-04-23T23:39:58.053Z,64.00
2019-04-23T23:42:26.025Z,64.00
2019-04-23T23:45:02.874Z,64.20
2019-04-23T23:50:00.894Z,64.40
2019-04-23T23:52:32.836Z,64.50
2019-04-23T23:54:59.326Z,64.30
2019-04-23T23:57:23.327Z,64.40
